Time;durP1;ratioP1;P1;durP2;ratioP2;P2;SDS_P1;SDS_P2;PMS_P1;PMS_P2;Temp;Humidity;BMP_temperature;BMP_pressure;BME280_temperature;BME280_humidity;BME280_pressure;Samples;Min_cycle;Max_cycle;Signal;HPM_P1;HPM_P2
2021/12/24 00:03:22;;;;;;;55.00;50.87;;;;;;;8.18;100.00;100891.27;1890287;75;86002;-76
2021/12/24 00:09:07;;;;;;;57.97;53.93;;;;;;;8.36;100.00;100883.09;1941269;72;85579;-82
2021/12/24 00:14:55;;;;;;;58.00;53.70;;;;;;;8.18;100.00;100867.75;1975634;71;39600;-76
2021/12/24 00:21:39;;;;;;;57.27;52.90;;;;;;;8.16;100.00;100870.52;1843546;76;86824;-79
2021/12/24 00:38:40;;;;;;;49.50;45.90;;;;;;;7.38;100.00;100861.69;1846166;76;86765;-75
2021/12/24 00:44:24;;;;;;;58.13;54.27;;;;;;;7.35;100.00;100857.53;1873332;75;87318;-76
2021/12/24 00:50:14;;;;;;;59.00;55.07;;;;;;;7.36;100.00;100859.75;1917098;73;86400;-76
2021/12/24 00:55:54;;;;;;;57.47;53.53;;;;;;;7.10;100.00;100855.94;1984196;71;39858;-76
2021/12/24 01:04:53;;;;;;;51.03;47.33;;;;;;;6.88;100.00;100851.85;1975394;71;39602;-78
2021/12/24 01:10:40;;;;;;;56.93;52.30;;;;;;;6.97;100.00;100846.15;1858845;76;86872;-77
2021/12/24 01:16:31;;;;;;;55.33;51.43;;;;;;;7.95;100.00;100839.16;1864448;75;86476;-76
2021/12/24 01:28:45;;;;;;;57.73;53.57;;;;;;;7.12;100.00;100802.09;1859655;70;103716;-75
2021/12/24 01:40:39;;;;;;;54.20;50.23;;;;;;;7.77;100.00;100849.27;1873430;74;86428;-83
2021/12/24 01:46:13;;;;;;;58.23;53.93;;;;;;;7.86;100.00;100853.75;1919441;72;85694;-73
2021/12/24 01:51:58;;;;;;;56.33;52.23;;;;;;;7.91;100.00;100858.77;1976461;71;39522;-84
2021/12/24 01:57:44;;;;;;;55.23;51.20;;;;;;;8.01;100.00;100869.03;1844654;76;86583;-79
2021/12/24 02:03:30;;;;;;;53.17;48.53;;;;;;;8.02;100.00;100866.02;1807675;78;86739;-78
2021/12/24 02:09:16;;;;;;;52.30;47.63;;;;;;;8.14;100.00;100860.25;1938655;72;86512;-75
2021/12/24 02:15:00;;;;;;;50.17;46.03;;;;;;;8.29;100.00;100849.83;1983569;70;39520;-75
2021/12/24 02:32:48;;;;;;;52.40;48.50;;;;;;;8.09;100.00;100848.61;1987390;71;40159;-79
2021/12/24 02:38:35;;;;;;;51.50;47.13;;;;;;;8.14;100.00;100834.81;1891857;74;85621;-83
2021/12/24 02:44:19;;;;;;;49.53;45.33;;;;;;;8.20;100.00;100831.53;1880574;74;86622;-77
2021/12/24 02:56:07;;;;;;;50.47;46.03;;;;;;;8.30;100.00;100822.47;1925689;72;86298;-79
2021/12/24 03:01:57;;;;;;;51.67;47.07;;;;;;;8.24;100.00;100821.03;1982416;71;39509;-75
2021/12/24 03:07:41;;;;;;;50.40;45.73;;;;;;;8.29;100.00;100813.85;1891683;74;87166;-78
2021/12/24 03:13:28;;;;;;;53.83;48.93;;;;;;;8.42;100.00;100816.98;1868444;75;86385;-84
2021/12/24 03:19:13;;;;;;;53.97;49.07;;;;;;;8.52;100.00;100820.31;1916290;74;86265;-83
2021/12/24 03:24:57;;;;;;;53.57;48.20;;;;;;;8.46;100.00;100819.48;1983014;71;39605;-74
2021/12/24 03:30:41;;;;;;;54.00;48.90;;;;;;;8.63;100.00;100812.33;1888700;74;85570;-83
2021/12/24 03:36:27;;;;;;;53.13;48.20;;;;;;;8.73;100.00;100806.80;1887951;74;86399;-78
2021/12/24 03:42:11;;;;;;;53.50;46.33;;;;;;;8.66;100.00;100800.15;1909641;74;86814;-77
2021/12/24 03:47:59;;;;;;;54.00;47.53;;;;;;;8.79;100.00;100797.40;1981395;71;39552;-76
2021/12/24 03:59:44;;;;;;;52.37;47.47;;;;;;;8.81;100.00;100801.29;1842402;76;86486;-77
2021/12/24 04:05:32;;;;;;;50.20;45.20;;;;;;;8.92;100.00;100789.94;1883061;75;86166;-83
2021/12/24 04:11:15;;;;;;;51.27;46.43;;;;;;;8.89;100.00;100788.28;1901603;74;86184;-75
2021/12/24 04:17:00;;;;;;;50.40;45.23;;;;;;;8.90;100.00;100779.67;1984266;70;39704;-83
2021/12/24 04:28:46;;;;;;;50.90;45.73;;;;;;;8.84;100.00;100775.25;1893652;74;86223;-76
2021/12/24 04:34:33;;;;;;;50.53;45.50;;;;;;;8.90;100.00;100771.36;1798004;78;86101;-77
2021/12/24 04:52:50;;;;;;;49.50;44.57;;;;;;;8.58;100.00;100755.56;1870481;75;86143;-76
2021/12/24 05:04:33;;;;;;;50.73;45.33;;;;;;;8.78;100.00;100774.12;1806541;78;86686;-76
2021/12/24 05:10:15;;;;;;;54.23;48.77;;;;;;;8.73;100.00;100765.84;1909311;74;86462;-74
2021/12/24 05:16:06;;;;;;;51.23;46.20;;;;;;;8.74;100.00;100766.92;1845912;75;86347;-85
2021/12/24 05:21:46;;;;;;;55.13;47.30;;;;;;;8.64;100.00;100769.70;1874306;74;86942;-78
2021/12/24 05:27:31;;;;;;;53.73;47.00;;;;;;;8.77;100.00;100762.80;1887342;74;86838;-76
2021/12/24 05:33:16;;;;;;;52.47;47.10;;;;;;;8.70;100.00;100768.58;1909837;72;86532;-78
2021/12/24 05:39:01;;;;;;;52.20;47.00;;;;;;;8.79;100.00;100761.40;1911219;72;86001;-78
2021/12/24 05:44:45;;;;;;;52.97;47.37;;;;;;;8.83;100.00;100750.59;1801295;78;86144;-78
2021/12/24 05:50:29;;;;;;;52.03;46.87;;;;;;;8.85;100.00;100749.23;1805160;78;86183;-77
2021/12/24 05:56:12;;;;;;;49.80;44.90;;;;;;;8.73;100.00;100744.48;1906984;72;86812;-84
2021/12/24 06:01:56;;;;;;;52.33;47.00;;;;;;;8.72;100.00;100742.02;1928940;71;40169;-76
2021/12/24 06:07:43;;;;;;;51.93;46.87;;;;;;;8.84;100.00;100747.56;1878586;74;86421;-77
2021/12/24 06:13:28;;;;;;;50.40;45.00;;;;;;;8.87;100.00;100751.16;1879814;74;85777;-78
2021/12/24 06:19:12;;;;;;;52.97;47.67;;;;;;;8.82;100.00;100756.69;1907855;74;85840;-78
2021/12/24 06:24:56;;;;;;;50.60;45.40;;;;;;;8.98;100.00;100760.31;1984515;71;40627;-84
2021/12/24 06:30:41;;;;;;;54.17;48.77;;;;;;;8.92;100.00;100760.02;1829984;76;86054;-85
2021/12/24 06:36:26;;;;;;;49.23;44.20;;;;;;;9.01;100.00;100776.37;1888065;73;85909;-84
2021/12/24 06:42:10;;;;;;;48.20;43.17;;;;;;;9.23;100.00;100778.86;1908517;72;86523;-76
2021/12/24 06:51:01;;;;;;;49.07;44.13;;;;;;;9.22;100.00;100775.25;1896479;74;86334;-76
2021/12/24 06:56:50;;;;;;;51.73;46.20;;;;;;;9.38;100.00;100781.05;1799862;78;86657;-87
2021/12/24 07:02:35;;;;;;;51.47;46.13;;;;;;;9.23;100.00;100775.55;1832323;76;85570;-78
2021/12/24 07:08:20;;;;;;;51.60;45.73;;;;;;;9.29;100.00;100771.64;1876445;74;86434;-74
2021/12/24 07:14:03;;;;;;;51.97;46.63;;;;;;;9.29;100.00;100769.42;1943067;73;85550;-73
2021/12/24 07:19:47;;;;;;;53.23;47.90;;;;;;;9.29;100.00;100763.88;1981135;71;39601;-77
2021/12/24 07:25:31;;;;;;;51.03;46.33;;;;;;;9.20;100.00;100769.73;1895037;74;86101;-76
2021/12/24 07:31:16;;;;;;;50.57;45.40;;;;;;;9.13;100.00;100763.06;1906772;72;86108;-78
2021/12/24 07:37:00;;;;;;;52.77;47.93;;;;;;;9.04;100.00;100760.57;1949006;73;86062;-77
2021/12/24 07:42:44;;;;;;;51.57;46.60;;;;;;;8.72;100.00;100751.16;1862792;75;85516;-76
2021/12/24 07:48:31;;;;;;;52.30;47.67;;;;;;;8.74;100.00;100740.62;1806300;78;86301;-76
2021/12/24 07:54:15;;;;;;;53.73;49.03;;;;;;;8.31;100.00;100746.63;1912518;74;86120;-74
2021/12/24 07:59:59;;;;;;;55.27;50.70;;;;;;;8.28;100.00;100752.69;1977922;71;39584;-74
2021/12/24 08:05:48;;;;;;;47.93;43.83;;;;;;;8.37;100.00;100756.62;1793682;78;86386;-75
2021/12/24 08:11:31;;;;;;;53.57;48.90;;;;;;;8.31;100.00;100755.77;1886131;74;86412;-73
2021/12/24 08:20:23;;;;;;;51.63;47.00;;;;;;;8.32;100.00;100760.75;1891660;74;86362;-78
2021/12/24 08:22:55;;;;;;;48.90;44.63;;;;;;;8.34;100.00;100785.69;1834605;76;935490;-78
2021/12/24 08:28:39;;;;;;;52.27;48.03;;;;;;;8.55;100.00;100769.95;1851755;75;86393;-75
2021/12/24 08:34:23;;;;;;;50.63;46.47;;;;;;;8.50;100.00;100768.55;1882936;74;86544;-76
2021/12/24 08:40:11;;;;;;;50.80;46.47;;;;;;;8.34;100.00;100760.78;1901028;73;86383;-77
2021/12/24 08:45:55;;;;;;;51.07;46.67;;;;;;;8.52;100.00;100767.71;1951377;71;39606;-75
2021/12/24 08:51:39;;;;;;;52.77;47.97;;;;;;;8.61;100.00;100757.77;1827697;76;86419;-78
2021/12/24 08:57:21;;;;;;;50.73;46.33;;;;;;;8.78;100.00;100757.51;1883152;74;86121;-75
2021/12/24 09:03:06;;;;;;;54.13;49.50;;;;;;;8.88;100.00;100759.75;1906183;74;86667;-78
2021/12/24 09:08:51;;;;;;;53.43;48.90;;;;;;;8.81;100.00;100746.73;1979678;71;40890;-76
2021/12/24 09:14:35;;;;;;;51.10;46.57;;;;;;;8.83;100.00;100742.28;1848395;76;86288;-76
2021/12/24 09:20:27;;;;;;;52.67;48.13;;;;;;;8.89;100.00;100738.42;1884264;74;86237;-79
2021/12/24 09:26:09;;;;;;;54.93;49.90;;;;;;;9.03;100.00;100746.43;1906561;72;86525;-76
2021/12/24 09:31:53;;;;;;;55.57;50.43;;;;;;;9.20;100.00;100735.09;1980920;71;39475;-74
2021/12/24 09:37:37;;;;;;;57.37;52.43;;;;;;;9.42;100.00;100731.42;1848674;76;86328;-76
2021/12/24 09:43:26;;;;;;;52.20;47.30;;;;;;;9.40;100.00;100727.56;1868389;75;85760;-78
2021/12/24 09:49:11;;;;;;;54.17;49.37;;;;;;;9.42;100.00;100714.23;1919315;73;86194;-80
2021/12/24 09:54:56;;;;;;;53.83;48.13;;;;;;;9.56;100.00;100707.55;1984525;71;39647;-80
2021/12/24 10:00:41;;;;;;;53.73;48.43;;;;;;;9.68;100.00;100698.91;1901422;74;86784;-81
2021/12/24 10:06:25;;;;;;;56.73;50.97;;;;;;;9.82;100.00;100700.80;1800721;78;86235;-75
2021/12/24 10:12:22;;;;;;;56.77;50.83;;;;;;;9.81;100.00;100685.27;1882875;73;86482;-74
2021/12/24 10:21:42;;;;;;;56.37;51.13;;;;;;;9.93;100.00;100674.66;1889322;74;86106;-76
2021/12/24 10:27:32;;;;;;;59.20;52.90;;;;;;;9.91;100.00;100681.63;1808018;78;86470;-78
2021/12/24 10:33:16;;;;;;;59.57;53.90;;;;;;;9.97;100.00;100679.91;1799747;78;85782;-79
2021/12/24 10:39:01;;;;;;;57.67;51.57;;;;;;;9.93;100.00;100687.70;1912409;73;86537;-76
2021/12/24 10:44:49;;;;;;;58.90;53.43;;;;;;;9.94;100.00;100683.27;1893080;74;86315;-79
2021/12/24 10:50:38;;;;;;;57.13;51.07;;;;;;;9.98;100.00;100678.80;1844506;76;86494;-78
2021/12/24 10:56:27;;;;;;;56.20;51.30;;;;;;;10.15;100.00;100664.59;1891276;75;86743;-78
2021/12/24 11:02:13;;;;;;;55.23;50.17;;;;;;;10.26;100.00;100659.25;1931227;72;86762;-75
2021/12/24 11:08:00;;;;;;;56.73;51.37;;;;;;;10.29;100.00;100675.88;1968537;71;39566;-77
2021/12/24 11:13:46;;;;;;;56.93;51.73;;;;;;;10.36;100.00;100663.33;1838871;76;86443;-77
2021/12/24 11:19:52;;;;;;;54.87;49.80;;;;;;;10.45;100.00;100660.77;1886406;74;86174;-77
2021/12/24 11:25:39;;;;;;;56.33;51.43;;;;;;;10.50;100.00;100661.57;1830825;74;86483;-78
2021/12/24 11:31:27;;;;;;;58.57;53.00;;;;;;;10.53;100.00;100660.15;1893873;73;86352;-76
2021/12/24 11:37:11;;;;;;;57.23;51.63;;;;;;;10.60;100.00;100660.67;1909266;74;85837;-78
2021/12/24 11:42:59;;;;;;;59.57;53.57;;;;;;;10.58;100.00;100647.62;1984163;71;39722;-76
2021/12/24 11:48:47;;;;;;;61.73;56.20;;;;;;;10.58;100.00;100642.62;1972658;72;86669;-78
2021/12/24 11:54:33;;;;;;;61.83;56.27;;;;;;;10.65;100.00;100637.02;1885914;74;86357;-76
2021/12/24 12:00:23;;;;;;;62.73;57.37;;;;;;;10.75;100.00;100628.58;1874467;74;86583;-78
2021/12/24 12:06:14;;;;;;;61.50;55.70;;;;;;;10.63;100.00;100623.97;1901950;72;86538;-78
2021/12/24 12:12:02;;;;;;;59.53;54.23;;;;;;;10.68;100.00;100619.77;1825838;78;85789;-77
2021/12/24 12:17:52;;;;;;;61.03;55.03;;;;;;;10.77;100.00;100612.46;1874076;75;86165;-78
2021/12/24 12:30:30;;;;;;;60.87;55.70;;;;;;;11.01;100.00;100599.98;1916690;74;86732;-77
2021/12/24 12:36:27;;;;;;;60.23;54.83;;;;;;;11.02;100.00;100591.92;1895506;73;86499;-77
2021/12/24 12:38:59;;;;;;;57.90;52.77;;;;;;;11.00;100.00;100591.92;1816827;76;938087;-77
2021/12/24 12:44:48;;;;;;;56.47;51.33;;;;;;;11.06;100.00;100573.53;1803287;78;86031;-75
2021/12/24 12:50:34;;;;;;;57.83;53.37;;;;;;;11.17;100.00;100563.10;1885259;74;86258;-74
2021/12/24 12:56:45;;;;;;;54.37;50.27;;;;;;;11.26;100.00;100573.84;1968842;72;86871;-75
2021/12/24 12:59:20;;;;;;;53.73;49.63;;;;;;;11.16;100.00;100583.71;1887058;73;938828;-75
2021/12/24 13:05:25;;;;;;;58.00;53.43;;;;;;;11.25;100.00;100556.33;1915844;73;86318;-76
2021/12/24 13:11:16;;;;;;;53.80;49.33;;;;;;;11.41;100.00;100541.13;1907999;74;85735;-80
2021/12/24 13:17:18;;;;;;;58.47;54.20;;;;;;;11.35;100.00;100540.92;1911297;74;85875;-76
2021/12/24 13:23:02;;;;;;;61.07;56.60;;;;;;;11.45;100.00;100526.61;1915796;74;86168;-78
2021/12/24 13:29:03;;;;;;;59.93;55.27;;;;;;;11.35;100.00;100526.18;1907599;74;85519;-76
2021/12/24 13:34:56;;;;;;;58.07;53.47;;;;;;;11.32;100.00;100533.18;1943336;71;39665;-75
2021/12/24 13:40:48;;;;;;;62.07;57.73;;;;;;;11.46;100.00;100515.20;1891203;74;86343;-81
2021/12/24 13:46:36;;;;;;;59.10;54.83;;;;;;;11.39;100.00;100524.45;1880783;74;85999;-76
2021/12/24 13:49:19;;;;;;;58.53;54.30;;;;;;;11.41;100.00;100527.78;1848667;76;939156;-74
2021/12/24 13:58:36;;;;;;;60.17;55.73;;;;;;;11.42;100.00;100511.37;1836987;76;86430;-76
2021/12/24 14:04:23;;;;;;;63.37;59.10;;;;;;;11.33;100.00;100502.03;1822627;77;86222;-74
2021/12/24 14:10:25;;;;;;;55.67;51.13;;;;;;;11.29;100.00;100503.76;1911160;72;86120;-75
2021/12/24 14:16:29;;;;;;;59.10;54.50;;;;;;;11.24;100.00;100499.09;1932349;72;85632;-82
2021/12/24 14:22:11;;;;;;;53.23;49.27;;;;;;;11.22;100.00;100494.37;1902360;72;86232;-76
2021/12/24 14:24:51;;;;;;;54.35;50.23;;;;;;;11.17;100.00;100506.95;1834677;75;938976;-76
2021/12/24 14:30:35;;;;;;;59.90;55.57;;;;;;;11.19;100.00;100479.69;1860032;76;86520;-77
2021/12/24 14:36:21;;;;;;;56.87;52.77;;;;;;;11.16;100.00;100480.30;1877593;75;86275;-77
2021/12/24 14:45:45;;;;;;;59.43;54.80;;;;;;;11.12;100.00;100472.84;1800106;78;86172;-74
2021/12/24 14:51:31;;;;;;;57.63;53.50;;;;;;;11.16;100.00;100477.52;1882699;74;86297;-77
2021/12/24 14:57:20;;;;;;;55.77;51.60;;;;;;;11.03;100.00;100466.30;1881416;75;86919;-73
2021/12/24 15:03:12;;;;;;;55.37;51.03;;;;;;;11.04;100.00;100455.45;1920451;72;86325;-75
2021/12/24 15:09:01;;;;;;;56.10;51.40;;;;;;;11.03;100.00;100457.95;1982822;71;39413;-78
2021/12/24 15:14:47;;;;;;;54.93;50.63;;;;;;;11.00;100.00;100457.14;1980308;71;39675;-79
2021/12/24 15:20:31;;;;;;;55.43;50.90;;;;;;;10.97;100.00;100458.58;1877520;74;86486;-77
2021/12/24 15:26:16;;;;;;;58.43;54.13;;;;;;;10.87;100.00;100449.80;1899439;73;86372;-74
2021/12/24 15:32:01;;;;;;;55.40;51.20;;;;;;;10.86;100.00;100440.39;1931041;71;86771;-77
2021/12/24 15:37:45;;;;;;;54.00;49.50;;;;;;;10.85;100.00;100442.89;1808254;78;86704;-80
2021/12/24 15:43:30;;;;;;;58.07;53.77;;;;;;;10.87;100.00;100433.13;1877618;74;85735;-75
2021/12/24 15:49:16;;;;;;;57.50;53.30;;;;;;;10.84;100.00;100417.62;1810374;78;86437;-77
2021/12/24 15:55:00;;;;;;;53.43;48.80;;;;;;;10.72;100.00;100413.89;1913146;72;86011;-76
2021/12/24 16:00:47;;;;;;;53.83;49.37;;;;;;;10.68;100.00;100418.38;1807004;78;86798;-74
2021/12/24 16:06:31;;;;;;;54.73;50.23;;;;;;;10.61;100.00;100417.09;1891375;74;86343;-74
2021/12/24 16:12:16;;;;;;;55.70;51.40;;;;;;;10.61;100.00;100415.70;1906821;72;86487;-79
2021/12/24 16:18:00;;;;;;;57.07;52.43;;;;;;;10.60;100.00;100412.09;1915408;73;85348;-75
2021/12/24 16:23:44;;;;;;;60.37;55.70;;;;;;;10.58;100.00;100409.33;1802762;78;86231;-74
2021/12/24 16:29:46;;;;;;;58.33;54.10;;;;;;;10.48;100.00;100404.75;1834605;76;86398;-75
2021/12/24 16:35:32;;;;;;;60.43;55.87;;;;;;;10.46;100.00;100406.98;1887080;74;86507;-75
2021/12/24 16:41:17;;;;;;;57.20;53.47;;;;;;;10.48;100.00;100402.77;1891291;74;86360;-73
2021/12/24 16:47:02;;;;;;;58.43;53.83;;;;;;;10.43;100.00;100410.36;1908829;74;86172;-76
2021/12/24 16:52:47;;;;;;;59.03;54.43;;;;;;;10.36;100.00;100404.30;1946587;71;39621;-81
2021/12/24 16:58:32;;;;;;;59.70;55.30;;;;;;;10.31;100.00;100401.02;1889655;74;85600;-76
2021/12/24 17:04:17;;;;;;;58.40;54.30;;;;;;;10.31;100.00;100398.84;1853074;76;85509;-75
2021/12/24 17:10:06;;;;;;;52.73;48.33;;;;;;;10.27;100.00;100372.79;1912246;73;86292;-78
2021/12/24 17:15:53;;;;;;;56.63;52.53;;;;;;;10.36;100.00;100398.20;1959145;71;39751;-77
2021/12/24 17:21:41;;;;;;;58.00;53.97;;;;;;;10.22;100.00;100388.94;1842504;76;86248;-79
2021/12/24 17:27:26;;;;;;;55.93;51.80;;;;;;;10.15;100.00;100394.52;1841394;77;85411;-74
2021/12/24 17:33:15;;;;;;;51.33;46.90;;;;;;;10.21;100.00;100383.11;1915733;72;86438;-75
2021/12/24 17:38:59;;;;;;;60.47;55.67;;;;;;;10.17;100.00;100373.72;1826731;78;86591;-78
2021/12/24 17:44:44;;;;;;;57.73;53.43;;;;;;;10.23;100.00;100380.02;1803690;78;86077;-76
2021/12/24 17:50:30;;;;;;;58.37;53.80;;;;;;;10.25;100.00;100381.95;1810449;78;86827;-76
2021/12/24 17:56:16;;;;;;;56.40;51.67;;;;;;;10.19;100.00;100380.34;1844434;76;85460;-77
2021/12/24 18:02:00;;;;;;;54.67;50.43;;;;;;;10.20;100.00;100378.67;1923472;73;86143;-76
2021/12/24 18:07:46;;;;;;;56.93;52.37;;;;;;;10.16;100.00;100378.17;1804036;78;85572;-77
2021/12/24 18:13:33;;;;;;;60.30;55.67;;;;;;;10.24;100.00;100379.73;1876318;76;85553;-74
2021/12/24 18:19:16;;;;;;;55.50;50.70;;;;;;;10.24;100.00;100381.69;1864193;75;86727;-77
2021/12/24 18:25:00;;;;;;;60.00;54.97;;;;;;;10.24;100.00;100367.80;1927781;72;86237;-75
2021/12/24 18:30:43;;;;;;;59.57;54.00;;;;;;;10.23;100.00;100366.98;1829449;76;85294;-75
2021/12/24 18:36:27;;;;;;;57.57;52.73;;;;;;;10.24;100.00;100367.25;1797361;78;85348;-75
2021/12/24 18:42:15;;;;;;;61.53;56.53;;;;;;;10.21;100.00;100360.08;1910964;74;86007;-80
2021/12/24 18:47:59;;;;;;;58.17;53.30;;;;;;;10.17;100.00;100358.45;1981294;70;75028;-77
2021/12/24 18:53:49;;;;;;;60.30;54.70;;;;;;;10.17;100.00;100367.34;1847070;76;85482;-75
2021/12/24 18:59:35;;;;;;;59.20;53.47;;;;;;;10.19;100.00;100354.81;1881775;74;86741;-75
2021/12/24 19:05:20;;;;;;;59.30;53.87;;;;;;;10.16;100.00;100354.58;1873656;75;86276;-78
2021/12/24 19:11:04;;;;;;;60.40;55.07;;;;;;;10.16;100.00;100356.80;1910721;72;86027;-73
2021/12/24 19:16:51;;;;;;;60.30;55.20;;;;;;;10.22;100.00;100352.02;1976684;71;39571;-75
2021/12/24 19:22:36;;;;;;;60.93;55.57;;;;;;;10.24;100.00;100353.38;1846390;76;86456;-71
2021/12/24 19:28:19;;;;;;;60.60;55.53;;;;;;;10.15;100.00;100353.75;1896829;74;86047;-74
2021/12/24 19:34:04;;;;;;;57.73;52.60;;;;;;;10.15;100.00;100358.44;1922069;73;85436;-74
2021/12/24 19:39:50;;;;;;;58.67;53.37;;;;;;;10.08;100.00;100353.25;1954299;71;39697;-74
2021/12/24 19:45:35;;;;;;;61.43;55.90;;;;;;;10.16;100.00;100342.92;1851524;76;86655;-76
2021/12/24 19:51:22;;;;;;;62.03;56.43;;;;;;;10.15;100.00;100345.95;1883743;73;85562;-76
2021/12/24 19:57:10;;;;;;;60.23;55.10;;;;;;;10.11;100.00;100347.10;1912645;74;85974;-76
2021/12/24 20:02:54;;;;;;;59.70;54.33;;;;;;;10.12;100.00;100356.26;1985941;71;39638;-74
2021/12/24 20:11:53;;;;;;;60.33;54.83;;;;;;;10.16;100.00;100344.31;1950158;71;39566;-77
2021/12/24 20:17:38;;;;;;;59.30;53.63;;;;;;;10.07;100.00;100343.27;1850627;75;86619;-73
2021/12/24 20:23:25;;;;;;;57.93;52.93;;;;;;;10.05;100.00;100342.16;1889062;73;86650;-74
2021/12/24 20:29:09;;;;;;;61.23;55.87;;;;;;;10.20;100.00;100339.82;1914442;73;86220;-74
2021/12/24 20:34:58;;;;;;;63.13;57.33;;;;;;;10.12;100.00;100342.38;1986808;71;39601;-76
2021/12/24 20:43:56;;;;;;;63.43;57.83;;;;;;;10.14;100.00;100323.50;1939959;71;39790;-76
2021/12/24 20:49:40;;;;;;;61.53;56.10;;;;;;;10.04;100.00;100328.60;1892072;74;86802;-76
2021/12/24 20:55:20;;;;;;;64.43;59.10;;;;;;;10.09;100.00;100331.33;1889834;72;86446;-76
2021/12/24 21:01:05;;;;;;;64.77;58.93;;;;;;;10.21;100.00;100335.93;1911328;72;85459;-75
2021/12/24 21:06:49;;;;;;;64.67;58.97;;;;;;;10.22;100.00;100329.27;1978595;71;39683;-74
2021/12/24 21:12:34;;;;;;;62.90;57.37;;;;;;;10.23;100.00;100335.05;1848422;76;86874;-74
2021/12/24 21:18:20;;;;;;;61.53;55.83;;;;;;;10.16;100.00;100330.43;1887354;75;86170;-77
2021/12/24 21:24:07;;;;;;;57.23;52.17;;;;;;;10.09;100.00;100323.00;1913704;74;86152;-77
2021/12/24 21:29:50;;;;;;;60.23;54.93;;;;;;;10.28;100.00;100318.34;1987149;71;39622;-79
2021/12/24 21:35:37;;;;;;;62.33;56.73;;;;;;;10.31;100.00;100323.89;1973603;71;86307;-79
2021/12/24 21:41:23;;;;;;;62.13;56.50;;;;;;;10.29;100.00;100321.95;1871101;75;86439;-73
2021/12/24 21:47:09;;;;;;;63.13;57.37;;;;;;;10.16;100.00;100315.72;1903860;72;86728;-77
2021/12/24 21:52:54;;;;;;;61.63;56.20;;;;;;;10.35;100.00;100327.16;1984226;71;39501;-75
2021/12/24 21:58:42;;;;;;;63.20;57.87;;;;;;;10.22;100.00;100316.77;1841255;76;86597;-72
2021/12/24 22:04:42;;;;;;;61.87;56.27;;;;;;;10.04;100.00;100322.49;1798801;78;85526;-78
2021/12/24 22:10:29;;;;;;;59.60;54.47;;;;;;;9.98;100.00;100322.83;1808380;78;86821;-79
2021/12/24 22:16:14;;;;;;;57.70;52.83;;;;;;;10.06;100.00;100316.07;1916605;72;86239;-74
2021/12/24 22:22:01;;;;;;;60.60;55.77;;;;;;;10.03;100.00;100320.00;1816112;78;86378;-70
2021/12/24 22:30:59;;;;;;;58.23;53.90;;;;;;;10.01;100.00;100317.52;1980176;69;39480;-78
2021/12/24 22:33:30;;;;;;;59.93;55.10;;;;;;;10.10;100.00;100327.99;1909805;73;936760;-77
2021/12/24 22:36:01;;;;;;;57.57;52.87;;;;;;;10.13;100.00;100331.00;1861337;75;941020;-77
2021/12/24 22:38:32;;;;;;;57.03;52.53;;;;;;;10.16;100.00;100330.43;1892901;74;938001;-76
2021/12/24 22:41:03;;;;;;;57.43;52.83;;;;;;;10.14;100.00;100322.12;1898145;74;939839;-77
2021/12/24 22:43:36;;;;;;;56.03;51.47;;;;;;;10.15;100.00;100325.13;1910507;73;940590;-78
2021/12/24 22:46:09;;;;;;;55.17;50.87;;;;;;;10.02;100.00;100323.34;1870160;75;940741;-77
2021/12/24 22:48:41;;;;;;;53.63;49.37;;;;;;;10.03;100.00;100325.55;1866884;74;939692;-77
2021/12/24 22:51:11;;;;;;;54.40;50.17;;;;;;;10.09;100.00;100324.39;1951728;72;940962;-78
2021/12/24 22:53:41;;;;;;;53.92;49.48;;;;;;;9.94;100.00;100323.98;1936279;72;940699;-76
2021/12/24 22:56:13;;;;;;;52.97;48.73;;;;;;;9.93;100.00;100330.64;1898154;74;937449;-76
2021/12/24 22:58:43;;;;;;;51.97;47.60;;;;;;;9.90;100.00;100331.23;1937954;72;937561;-75
2021/12/24 23:01:13;;;;;;;50.90;47.00;;;;;;;9.85;100.00;100327.12;1955456;72;938666;-75
2021/12/24 23:03:44;;;;;;;50.65;46.85;;;;;;;9.98;100.00;100330.59;1854621;75;939114;-75
2021/12/24 23:06:14;;;;;;;51.17;47.37;;;;;;;9.90;100.00;100332.63;1864203;75;938635;-75
2021/12/24 23:08:47;;;;;;;51.90;47.80;;;;;;;9.92;100.00;100332.34;1942544;72;938563;-76
2021/12/24 23:11:16;;;;;;;52.13;47.97;;;;;;;9.90;100.00;100340.12;1949985;72;938813;-76
2021/12/24 23:13:47;;;;;;;53.97;49.97;;;;;;;9.92;100.00;100337.89;1943090;72;938770;-76
2021/12/24 23:16:22;;;;;;;51.60;47.80;;;;;;;9.88;100.00;100347.34;1866868;75;938724;-75
2021/12/24 23:18:59;;;;;;;53.25;49.18;;;;;;;9.83;100.00;100337.70;1868455;75;938661;-75
2021/12/24 23:21:23;;;;;;;50.37;46.47;;;;;;;9.79;100.00;100339.41;1951255;72;936758;-75
2021/12/24 23:23:54;;;;;;;52.70;48.50;;;;;;;9.79;100.00;100337.19;1938360;72;937574;-75
2021/12/24 23:29:38;;;;;;;51.83;47.83;;;;;;;9.89;100.00;100325.41;1826001;76;86512;-76
2021/12/24 23:35:24;;;;;;;54.13;50.10;;;;;;;9.92;100.00;100327.63;1915242;74;86578;-76
2021/12/24 23:41:09;;;;;;;53.20;49.10;;;;;;;9.81;100.00;100317.73;1918594;74;86203;-76
2021/12/24 23:47:04;;;;;;;56.43;51.97;;;;;;;9.80;100.00;100318.02;1977835;71;39736;-76
2021/12/24 23:52:56;;;;;;;53.47;49.33;;;;;;;9.82;100.00;100325.50;1813763;78;86513;-75
2021/12/24 23:58:41;;;;;;;53.87;49.80;;;;;;;9.77;100.00;100328.33;1853348;76;86659;-74
